createdAt,value
2022-12-13T00:01:24.185Z,100783.44
2022-12-13T00:03:52.515Z,100779.72
2022-12-13T00:06:18.847Z,100776.75
2022-12-13T00:08:45.192Z,100783.16
2022-12-13T00:11:12.027Z,100780.28
2022-12-13T00:13:38.568Z,100778.81
2022-12-13T00:16:05.979Z,100778.09
2022-12-13T00:18:32.465Z,100777.34
2022-12-13T00:20:59.078Z,100771.59
2022-12-13T00:23:25.406Z,100766.56
2022-12-13T00:25:51.719Z,100761.53
2022-12-13T00:28:18.259Z,100770.28
2022-12-13T00:30:44.641Z,100765.97
2022-12-13T00:33:11.058Z,100760.22
2022-12-13T00:35:40.914Z,100751.50
2022-12-13T00:38:07.238Z,100761.53
2022-12-13T00:40:33.557Z,100754.31
2022-12-13T00:42:59.889Z,100753.56
2022-12-13T00:45:26.242Z,100747.06
2022-12-13T00:47:52.611Z,100748.47
2022-12-13T00:50:18.947Z,100751.34
2022-12-13T00:52:45.272Z,100749.84
2022-12-13T00:55:11.775Z,100744.09
2022-12-13T00:57:38.480Z,100742.63
2022-12-13T01:00:05.113Z,100741.41
2022-12-13T01:02:31.461Z,100748.72
2022-12-13T01:04:57.844Z,100743.03
2022-12-13T01:07:24.286Z,100748.88
2022-12-13T01:09:50.604Z,100750.94
2022-12-13T01:12:17.302Z,100747.25
2022-12-13T01:14:44.228Z,100751.50
2022-12-13T01:17:10.661Z,100754.31
2022-12-13T01:19:37.049Z,100748.56
2022-12-13T01:22:04.445Z,100749.84
2022-12-13T01:24:30.779Z,100745.59
2022-12-13T01:26:57.661Z,100741.22
2022-12-13T01:29:24.167Z,100739.75
2022-12-13T01:31:52.361Z,100745.50
2022-12-13T01:34:19.022Z,100740.47
2022-12-13T01:36:45.634Z,100732.59
2022-12-13T01:39:14.543Z,100736.88
2022-12-13T01:41:41.324Z,100734.09
2022-12-13T01:44:27.841Z,100729.06
2022-12-13T01:46:54.180Z,100722.56
2022-12-13T01:49:21.004Z,100721.06
2022-12-13T01:51:54.737Z,100726.75
2022-12-13T01:54:24.929Z,100729.63
2022-12-13T01:57:00.714Z,100723.88
2022-12-13T01:59:27.445Z,100719.50
2022-12-13T02:01:54.019Z,100718.78
2022-12-13T02:04:28.666Z,100719.44
2022-12-13T02:06:54.989Z,100712.94
2022-12-13T02:09:21.365Z,100713.66
2022-12-13T02:11:47.709Z,100723.78
2022-12-13T02:14:14.025Z,100726.66
2022-12-13T02:16:43.972Z,100731.03
2022-12-13T02:19:22.183Z,100741.13
2022-12-13T02:38:48.427Z,100715.00
2022-12-13T02:41:28.304Z,100723.63
2022-12-13T02:44:22.652Z,100717.97
2022-12-13T02:46:53.927Z,100717.97
2022-12-13T02:49:20.741Z,100720.91
2022-12-13T02:51:47.060Z,100719.44
2022-12-13T02:54:13.386Z,100711.53
2022-12-13T02:56:39.707Z,100717.19
2022-12-13T02:59:08.806Z,100709.25
2022-12-13T03:01:47.576Z,100715.00
2022-12-13T03:04:36.477Z,100709.25
2022-12-13T03:07:07.264Z,100715.00
2022-12-13T03:09:33.624Z,100720.66
2022-12-13T03:12:24.149Z,100714.91
2022-12-13T03:14:56.265Z,100709.16
2022-12-13T03:17:22.588Z,100712.03
2022-12-13T03:19:51.332Z,100704.84
2022-12-13T03:22:17.808Z,100702.72
2022-12-13T03:24:44.170Z,100705.59
2022-12-13T03:27:10.533Z,100701.25
2022-12-13T03:29:37.953Z,100697.72
2022-12-13T03:32:04.371Z,100695.50
2022-12-13T03:34:44.233Z,100696.13
2022-12-13T03:37:11.867Z,100699.00
2022-12-13T03:39:38.197Z,100697.53
2022-12-13T03:42:07.502Z,100690.28
2022-12-13T03:44:33.835Z,100696.06
2022-12-13T03:47:00.811Z,100688.81
2022-12-13T03:49:35.372Z,100686.03
2022-12-13T03:52:02.237Z,100683.97
2022-12-13T03:54:28.553Z,100685.44
2022-12-13T03:56:54.863Z,100683.16
2022-12-13T03:59:21.185Z,100678.13
2022-12-13T04:01:48.349Z,100681.94
2022-12-13T04:04:14.684Z,100678.41
2022-12-13T04:06:40.988Z,100684.25
2022-12-13T04:09:07.344Z,100680.59
2022-12-13T04:11:52.213Z,100669.19
2022-12-13T04:14:22.353Z,100675.59
2022-12-13T04:16:49.292Z,100672.66
2022-12-13T04:19:15.661Z,100679.13
2022-12-13T04:21:49.789Z,100676.16
2022-12-13T04:24:16.440Z,100680.38
2022-12-13T04:26:42.740Z,100684.72
2022-12-13T04:29:09.063Z,100672.47
2022-12-13T04:31:35.502Z,100683.34
2022-12-13T04:34:01.911Z,100671.75
2022-12-13T04:36:32.139Z,100670.25
2022-12-13T04:39:01.725Z,100676.00
2022-12-13T04:41:34.399Z,100681.75
2022-12-13T04:44:01.104Z,100691.78
2022-12-13T04:46:27.422Z,100678.88
2022-12-13T04:48:53.754Z,100687.50
2022-12-13T04:51:22.775Z,100688.28
2022-12-13T04:53:49.090Z,100684.63
2022-12-13T04:56:15.398Z,100688.28
2022-12-13T04:58:41.759Z,100686.22
2022-12-13T05:01:08.523Z,100686.94
2022-12-13T05:03:35.054Z,100689.19
2022-12-13T05:06:26.729Z,100684.88
2022-12-13T05:08:54.041Z,100685.63
2022-12-13T05:11:22.843Z,100684.88
2022-12-13T05:13:49.460Z,100685.63
2022-12-13T05:16:16.021Z,100681.19
2022-12-13T05:18:42.391Z,100681.19
2022-12-13T05:21:09.356Z,100684.72
2022-12-13T05:23:36.117Z,100682.50
2022-12-13T05:26:02.472Z,100673.13
2022-12-13T05:28:29.120Z,100676.75
2022-12-13T05:30:56.055Z,100681.75
2022-12-13T05:33:22.718Z,100678.88
2022-12-13T05:35:49.041Z,100679.56
2022-12-13T05:38:15.518Z,100669.41
2022-12-13T05:40:41.841Z,100677.31
2022-12-13T05:43:21.013Z,100680.09
2022-12-13T05:45:48.521Z,100678.06
2022-12-13T05:48:24.404Z,100674.44
2022-12-13T05:50:51.304Z,100674.53
2022-12-13T05:53:30.986Z,100670.91
2022-12-13T05:56:00.858Z,100677.41
2022-12-13T05:58:27.224Z,100672.47
2022-12-13T06:01:09.191Z,100669.59
2022-12-13T06:03:35.774Z,100673.19
2022-12-13T06:06:03.884Z,100683.25
2022-12-13T06:08:30.669Z,100684.72
2022-12-13T06:11:11.354Z,100681.84
2022-12-13T06:13:42.118Z,100689.75
2022-12-13T06:16:23.707Z,100687.50
2022-12-13T06:18:50.591Z,100688.91
2022-12-13T06:21:17.385Z,100692.53
2022-12-13T06:23:44.192Z,100688.91
2022-12-13T06:26:10.512Z,100688.81
2022-12-13T06:28:36.848Z,100687.34
2022-12-13T06:31:03.259Z,100688.00
2022-12-13T06:33:29.911Z,100702.72
2022-12-13T06:35:56.840Z,100697.88
2022-12-13T06:38:31.972Z,100693.44
2022-12-13T06:41:11.444Z,100699.38
2022-12-13T06:43:37.767Z,100700.94
2022-12-13T06:46:04.906Z,100703.97
2022-12-13T06:48:31.270Z,100701.19
2022-12-13T06:50:59.754Z,100710.81
2022-12-13T06:53:26.069Z,100709.16
2022-12-13T06:55:52.542Z,100709.41
2022-12-13T06:58:18.875Z,100705.88
2022-12-13T07:00:48.981Z,100713.84
2022-12-13T07:03:15.995Z,100711.31
2022-12-13T07:05:43.358Z,100717.19
2022-12-13T07:08:10.062Z,100718.00
2022-12-13T07:10:37.949Z,100718.31
2022-12-13T07:13:04.303Z,100723.56
2022-12-13T07:15:32.748Z,100718.13
2022-12-13T07:17:59.145Z,100719.59
2022-12-13T07:20:25.521Z,100715.00
2022-12-13T07:22:58.825Z,100720.44
2022-12-13T07:25:27.555Z,100725.63
2022-12-13T07:27:56.125Z,100727.75
2022-12-13T07:30:28.728Z,100729.16
2022-12-13T07:32:55.070Z,100722.50
2022-12-13T07:35:21.445Z,100733.19
2022-12-13T07:37:47.773Z,100731.06
2022-12-13T07:40:14.131Z,100737.56
2022-12-13T07:42:40.465Z,100734.50
2022-12-13T07:45:06.931Z,100751.34
2022-12-13T07:47:36.947Z,100742.66
2022-12-13T07:50:03.292Z,100740.56
2022-12-13T07:52:43.363Z,100738.41
2022-12-13T07:55:09.733Z,100749.25
2022-12-13T07:57:36.044Z,100748.03
2022-12-13T08:00:02.640Z,100755.44
2022-12-13T08:02:39.836Z,100748.28
2022-12-13T08:05:26.871Z,100757.00
2022-12-13T08:07:53.245Z,100758.56
2022-12-13T08:10:20.709Z,100755.69
2022-12-13T08:12:47.032Z,100761.59
2022-12-13T08:15:14.246Z,100759.78
2022-12-13T08:17:47.468Z,100755.44
2022-12-13T08:20:13.795Z,100765.41
2022-12-13T08:22:55.256Z,100759.56
2022-12-13T08:25:29.472Z,100759.41
2022-12-13T08:27:55.815Z,100760.13
2022-12-13T08:30:28.749Z,100763.31
2022-12-13T08:32:55.894Z,100766.06
2022-12-13T08:35:22.422Z,100753.03
2022-12-13T08:37:49.554Z,100764.66
2022-12-13T08:40:15.877Z,100764.88
2022-12-13T08:42:42.242Z,100769.41
2022-12-13T08:45:08.804Z,100774.19
2022-12-13T08:47:41.383Z,100771.91
2022-12-13T08:50:08.261Z,100786.44
2022-12-13T08:52:39.453Z,100779.59
2022-12-13T08:55:07.649Z,100781.25
2022-12-13T08:57:35.562Z,100781.66
2022-12-13T09:00:02.506Z,100783.75
2022-12-13T09:02:28.900Z,100774.19
2022-12-13T09:04:55.388Z,100782.44
2022-12-13T09:07:21.709Z,100780.88
2022-12-13T09:09:54.700Z,100783.84
2022-12-13T09:12:30.707Z,100774.63
2022-12-13T09:15:01.160Z,100782.03
2022-12-13T09:17:28.666Z,100785.72
2022-12-13T09:20:04.972Z,100787.78
2022-12-13T09:22:50.143Z,100785.16
2022-12-13T09:25:23.952Z,100783.59
2022-12-13T09:27:50.765Z,100787.38
2022-12-13T09:30:17.108Z,100783.31
2022-12-13T09:32:49.597Z,100783.13
2022-12-13T09:35:15.964Z,100781.84
2022-12-13T09:37:45.902Z,100785.94
2022-12-13T09:40:26.383Z,100787.66
2022-12-13T09:43:11.941Z,100792.09
2022-12-13T09:45:42.990Z,100792.50
2022-12-13T09:48:13.538Z,100785.81
2022-12-13T09:50:46.397Z,100776.22
2022-12-13T09:53:21.768Z,100780.91
2022-12-13T09:55:52.349Z,100772.78
2022-12-13T09:58:23.825Z,100783.69
2022-12-13T10:00:51.617Z,100775.91
2022-12-13T10:03:18.383Z,100778.69
2022-12-13T10:05:48.067Z,100771.38
2022-12-13T10:08:14.940Z,100762.75
2022-12-13T10:10:41.460Z,100769.72
2022-12-13T10:13:13.644Z,100772.69
2022-12-13T10:15:41.565Z,100768.81
2022-12-13T10:18:10.957Z,100777.81
2022-12-13T10:20:37.315Z,100775.13
2022-12-13T10:23:33.173Z,100771.31
2022-12-13T10:26:03.162Z,100761.59
2022-12-13T10:28:30.914Z,100767.53
2022-12-13T10:30:57.247Z,100766.13
2022-12-13T10:33:30.644Z,100760.44
2022-12-13T10:36:11.410Z,100759.94
2022-12-13T10:38:42.496Z,100767.84
2022-12-13T10:41:24.803Z,100756.31
2022-12-13T10:44:09.741Z,100764.28
2022-12-13T10:46:38.797Z,100756.81
2022-12-13T10:49:12.810Z,100752.88
2022-12-13T10:51:45.616Z,100747.78
2022-12-13T10:54:14.318Z,100748.91
2022-12-13T10:56:44.701Z,100748.91
2022-12-13T10:59:17.178Z,100749.16
2022-12-13T11:01:46.588Z,100751.94
2022-12-13T11:04:27.523Z,100751.94
2022-12-13T11:06:54.633Z,100749.00
2022-12-13T11:09:24.989Z,100744.78
2022-12-13T11:11:57.962Z,100740.50
2022-12-13T11:14:31.683Z,100746.09
2022-12-13T11:16:59.869Z,100744.03
2022-12-13T11:19:36.387Z,100749.06
2022-12-13T11:22:02.737Z,100744.63
2022-12-13T11:24:30.203Z,100737.06
2022-12-13T11:27:35.162Z,100739.53
2022-12-13T11:30:03.705Z,100731.41
2022-12-13T11:32:36.394Z,100735.09
2022-12-13T11:35:24.475Z,100736.25
2022-12-13T11:37:54.766Z,100729.09
2022-12-13T11:40:25.784Z,100732.84
2022-12-13T11:43:10.716Z,100726.28
2022-12-13T11:45:37.860Z,100734.44
2022-12-13T11:48:13.110Z,100725.84
2022-12-13T11:50:43.624Z,100731.59
2022-12-13T11:53:35.140Z,100729.50
2022-12-13T11:56:11.324Z,100724.38
2022-12-13T12:01:40.362Z,100728.69
2022-12-13T12:04:10.841Z,100736.72
2022-12-13T12:06:45.252Z,100735.34
2022-12-13T12:09:15.426Z,100729.06
2022-12-13T12:11:51.886Z,100732.03
2022-12-13T12:14:21.146Z,100740.00
2022-12-13T12:16:49.544Z,100743.13
2022-12-13T12:19:16.920Z,100739.44
2022-12-13T12:22:13.329Z,100741.84
2022-12-13T12:24:45.405Z,100740.66
2022-12-13T12:27:30.271Z,100743.47
2022-12-13T12:30:02.032Z,100741.25
2022-12-13T12:32:28.382Z,100727.50
2022-12-13T12:35:13.691Z,100728.91
2022-12-13T12:37:40.167Z,100732.59
2022-12-13T12:40:11.405Z,100734.66
2022-12-13T12:43:15.364Z,100725.59
2022-12-13T12:45:58.266Z,100727.66
2022-12-13T12:49:00.463Z,100734.75
2022-12-13T12:51:54.835Z,100730.72
2022-12-13T12:54:31.854Z,100731.13
2022-12-13T12:57:01.770Z,100730.47
2022-12-13T12:59:31.135Z,100731.78
2022-12-13T13:01:57.485Z,100731.13
2022-12-13T13:04:26.645Z,100729.50
2022-12-13T13:07:01.425Z,100741.00
2022-12-13T13:09:28.288Z,100738.25
2022-12-13T13:11:57.602Z,100724.41
2022-12-13T13:14:29.075Z,100742.97
2022-12-13T13:16:55.772Z,100732.59
2022-12-13T13:20:11.277Z,100731.31
2022-12-13T13:22:42.972Z,100728.91
2022-12-13T13:25:09.470Z,100731.63
2022-12-13T13:27:47.766Z,100729.38
2022-12-13T13:30:21.846Z,100731.63
2022-12-13T13:32:48.236Z,100726.13
2022-12-13T13:35:30.190Z,100727.91
2022-12-13T13:37:57.138Z,100733.47
2022-12-13T13:40:34.536Z,100724.22
2022-12-13T13:43:07.030Z,100730.34
2022-12-13T13:45:51.727Z,100725.88
2022-12-13T13:48:26.165Z,100728.94
2022-12-13T13:50:58.084Z,100725.16
2022-12-13T13:53:43.711Z,100725.59
2022-12-13T13:56:10.475Z,100732.59
2022-12-13T13:58:49.042Z,100720.63
2022-12-13T14:01:24.016Z,100709.53
2022-12-13T14:04:10.174Z,100711.72
2022-12-13T14:07:12.261Z,100708.63
2022-12-13T14:09:53.418Z,100715.44
2022-12-13T14:12:28.871Z,100713.66
2022-12-13T14:15:08.884Z,100718.97
2022-12-13T14:17:49.978Z,100714.78
2022-12-13T14:20:33.225Z,100723.41
2022-12-13T14:23:05.985Z,100725.34
2022-12-13T14:25:40.236Z,100715.69
2022-12-13T14:28:30.187Z,100717.94
2022-12-13T14:30:56.987Z,100720.94
2022-12-13T14:33:24.274Z,100722.34
2022-12-13T14:35:52.103Z,100724.13
2022-12-13T14:38:25.250Z,100724.41
2022-12-13T14:40:52.648Z,100720.16
2022-12-13T14:43:29.445Z,100714.22
2022-12-13T14:46:02.214Z,100717.19
2022-12-13T14:48:34.824Z,100718.59
2022-12-13T14:51:01.306Z,100719.34
2022-12-13T14:53:33.575Z,100711.50
2022-12-13T14:56:28.563Z,100707.28
2022-12-13T14:59:02.363Z,100710.25
2022-12-13T15:01:32.874Z,100714.53
2022-12-13T15:04:17.917Z,100712.88
2022-12-13T15:06:48.355Z,100717.34
2022-12-13T15:09:15.258Z,100714.97
2022-12-13T15:11:41.929Z,100729.16
2022-12-13T15:14:13.211Z,100716.88
2022-12-13T15:16:39.641Z,100719.41
2022-12-13T15:19:29.030Z,100721.78
2022-12-13T15:22:11.302Z,100718.81
2022-12-13T15:24:42.112Z,100723.69
2022-12-13T15:27:13.071Z,100717.19
2022-12-13T15:29:39.420Z,100717.25
2022-12-13T15:32:05.919Z,100727.63
2022-12-13T15:34:33.859Z,100717.44
2022-12-13T15:37:01.416Z,100720.31
2022-12-13T15:39:27.804Z,100721.94
2022-12-13T15:41:54.625Z,100719.88
2022-12-13T15:44:22.714Z,100729.69
2022-12-13T15:46:49.771Z,100728.88
2022-12-13T15:49:24.208Z,100726.06
2022-12-13T15:51:57.343Z,100724.50
2022-12-13T15:54:26.276Z,100726.72
2022-12-13T15:56:58.394Z,100716.53
2022-12-13T15:59:25.489Z,100720.88
2022-12-13T16:01:57.834Z,100726.06
2022-12-13T16:04:25.432Z,100725.84
2022-12-13T16:06:55.793Z,100724.38
2022-12-13T16:09:26.086Z,100720.06
2022-12-13T16:11:53.363Z,100727.25
2022-12-13T16:14:26.232Z,100721.63
2022-12-13T16:16:53.229Z,100722.44
2022-12-13T16:19:26.364Z,100717.34
2022-12-13T16:21:52.721Z,100711.50
2022-12-13T16:24:24.950Z,100714.53
2022-12-13T16:26:51.420Z,100709.28
2022-12-13T16:29:19.471Z,100711.56
2022-12-13T16:31:46.006Z,100705.72
2022-12-13T16:34:12.488Z,100704.91
2022-12-13T16:36:38.805Z,100699.88
2022-12-13T16:39:05.345Z,100707.13
2022-12-13T16:41:34.771Z,100705.81
2022-12-13T16:44:01.963Z,100699.97
2022-12-13T16:47:13.758Z,100706.38
2022-12-13T16:49:17.713Z,100706.38
2022-12-13T16:51:56.294Z,100701.88
2022-12-13T16:54:23.298Z,100700.41
2022-12-13T16:56:53.680Z,100704.91
2022-12-13T16:59:20.727Z,100707.56
2022-12-13T17:01:50.970Z,100705.66
2022-12-13T17:04:22.354Z,100713.78
2022-12-13T17:06:49.488Z,100710.97
2022-12-13T17:09:15.821Z,100709.50
2022-12-13T17:11:42.157Z,100698.03
2022-12-13T17:14:08.517Z,100702.25
2022-12-13T17:16:34.907Z,100699.28
2022-12-13T17:19:01.413Z,100703.00
2022-12-13T17:21:28.542Z,100685.13
2022-12-13T17:23:58.276Z,100693.59
2022-12-13T17:26:24.649Z,100692.41
2022-12-13T17:28:53.815Z,100695.31
2022-12-13T17:31:20.241Z,100692.50
2022-12-13T17:33:46.889Z,100702.53
2022-12-13T17:36:13.652Z,100692.19
2022-12-13T17:38:45.600Z,100691.38
2022-12-13T17:41:12.349Z,100697.97
2022-12-13T17:43:39.107Z,100685.13
2022-12-13T17:46:12.251Z,100691.91
2022-12-13T17:48:41.013Z,100684.50
2022-12-13T17:51:11.498Z,100691.00
2022-12-13T17:53:40.978Z,100691.13
2022-12-13T17:56:12.142Z,100690.72
2022-12-13T17:58:38.610Z,100688.03
2022-12-13T18:01:11.210Z,100685.03
2022-12-13T18:03:38.200Z,100684.78
2022-12-13T18:06:07.676Z,100680.44
2022-12-13T18:08:37.426Z,100678.72
2022-12-13T18:13:55.247Z,100678.44
2022-12-13T18:16:22.078Z,100679.16
2022-12-13T18:18:54.852Z,100687.38
2022-12-13T18:21:22.201Z,100688.50
2022-12-13T18:23:55.017Z,100682.50
2022-12-13T18:26:22.252Z,100683.41
2022-12-13T18:28:48.591Z,100681.84
2022-12-13T18:31:16.019Z,100674.78
2022-12-13T18:33:47.282Z,100677.00
2022-12-13T18:36:16.957Z,100677.09
2022-12-13T18:38:43.925Z,100684.34
2022-12-13T18:41:12.417Z,100680.81
2022-12-13T18:43:38.746Z,100681.53
2022-12-13T18:46:05.170Z,100678.66
2022-12-13T18:48:31.534Z,100677.19
2022-12-13T18:51:01.354Z,100683.69
2022-12-13T18:53:27.979Z,100681.47
2022-12-13T18:56:00.085Z,100681.34
2022-12-13T18:58:26.496Z,100682.56
2022-12-13T19:00:52.867Z,100682.69
2022-12-13T19:03:19.260Z,100699.22
2022-12-13T19:05:48.176Z,100686.63
2022-12-13T19:08:14.497Z,100675.19
2022-12-13T19:10:40.900Z,100683.97
2022-12-13T19:13:07.220Z,100680.53
2022-12-13T19:15:36.779Z,100675.69
2022-12-13T19:18:03.146Z,100680.06
2022-12-13T19:20:29.679Z,100674.38
2022-12-13T19:22:56.162Z,100673.53
2022-12-13T19:25:23.011Z,100669.38
2022-12-13T19:27:49.384Z,100670.88
2022-12-13T19:30:17.607Z,100678.09
2022-12-13T19:32:44.128Z,100692.44
2022-12-13T19:35:18.044Z,100696.66
2022-12-13T19:37:44.384Z,100688.66
2022-12-13T19:40:10.931Z,100684.88
2022-12-13T19:42:37.297Z,100689.19
2022-12-13T19:45:03.897Z,100682.59
2022-12-13T19:47:30.235Z,100684.75
2022-12-13T19:49:59.670Z,100690.34
2022-12-13T19:52:28.949Z,100688.84
2022-12-13T19:54:59.357Z,100685.72
2022-12-13T19:57:26.684Z,100688.53
2022-12-13T19:59:53.005Z,100686.22
2022-12-13T20:02:19.947Z,100683.31
2022-12-13T20:04:52.876Z,100685.47
2022-12-13T20:07:22.188Z,100687.03
2022-12-13T20:09:48.561Z,100681.25
2022-12-13T20:12:14.882Z,100679.13
2022-12-13T20:14:41.198Z,100672.34
2022-12-13T20:17:08.106Z,100674.69
2022-12-13T20:19:34.427Z,100676.53
2022-12-13T20:22:01.496Z,100674.94
2022-12-13T20:24:27.834Z,100676.66
2022-12-13T20:26:54.284Z,100667.00
2022-12-13T20:29:21.151Z,100663.19
2022-12-13T20:31:48.817Z,100656.59
2022-12-13T20:34:18.364Z,100662.69
2022-12-13T20:36:44.698Z,100658.00
2022-12-13T20:39:11.292Z,100664.66
2022-12-13T20:41:37.637Z,100658.22
2022-12-13T20:44:04.649Z,100657.59
2022-12-13T20:46:31.691Z,100660.47
2022-12-13T20:48:58.651Z,100653.25
2022-12-13T20:51:31.924Z,100651.81
2022-12-13T20:53:58.502Z,100655.34
2022-12-13T20:56:25.645Z,100661.06
2022-12-13T20:58:52.151Z,100645.91
2022-12-13T21:01:22.282Z,100643.69
2022-12-13T21:03:49.394Z,100653.72
2022-12-13T21:06:15.713Z,100640.75
2022-12-13T21:08:51.006Z,100647.22
2022-12-13T21:11:27.024Z,100651.53
2022-12-13T21:14:05.424Z,100649.28
2022-12-13T21:16:35.963Z,100645.75
2022-12-13T21:19:02.359Z,100640.00
2022-12-13T21:21:28.689Z,100634.25
2022-12-13T21:23:56.110Z,100634.31
2022-12-13T21:26:30.021Z,100631.41
2022-12-13T21:29:00.073Z,100614.16
2022-12-13T21:31:26.493Z,100617.03
2022-12-13T21:33:54.592Z,100612.69
2022-12-13T21:36:21.664Z,100611.94
2022-12-13T21:38:54.533Z,100611.94
2022-12-13T21:41:20.849Z,100606.19
2022-12-13T21:43:48.494Z,100609.72
2022-12-13T21:46:16.462Z,100608.25
2022-12-13T21:48:42.953Z,100606.75
2022-12-13T21:51:10.485Z,100612.50
2022-12-13T21:53:36.867Z,100606.84
2022-12-13T21:56:23.434Z,100605.47
2022-12-13T21:59:08.600Z,100593.78
2022-12-13T22:01:53.803Z,100602.31
2022-12-13T22:04:20.382Z,100597.91
2022-12-13T22:06:46.722Z,100592.13
2022-12-13T22:09:13.091Z,100586.38
2022-12-13T22:11:41.158Z,100582.66
2022-12-13T22:14:07.493Z,100583.44
2022-12-13T22:16:33.833Z,100583.44
2022-12-13T22:19:00.282Z,100577.66
2022-12-13T22:21:26.589Z,100582.00
2022-12-13T22:23:55.814Z,100581.34
2022-12-13T22:26:22.661Z,100569.03
2022-12-13T22:28:52.068Z,100574.34
2022-12-13T22:31:18.425Z,100570.00
2022-12-13T22:33:44.839Z,100558.50
2022-12-13T22:36:11.168Z,100565.72
2022-12-13T22:38:37.520Z,100556.25
2022-12-13T22:41:03.930Z,100559.06
2022-12-13T22:43:33.875Z,100551.00
2022-12-13T22:46:04.779Z,100545.91
2022-12-13T22:48:31.607Z,100544.44
2022-12-13T22:51:07.964Z,100543.03
2022-12-13T22:53:35.897Z,100537.28
2022-12-13T22:56:03.843Z,100534.41
2022-12-13T22:58:30.489Z,100535.13
2022-12-13T23:00:56.866Z,100535.88
2022-12-13T23:03:23.462Z,100536.56
2022-12-13T23:05:52.930Z,100531.44
2022-12-13T23:08:19.342Z,100537.94
2022-12-13T23:11:04.091Z,100529.22
2022-12-13T23:13:30.417Z,100521.22
2022-12-13T23:15:56.734Z,100527.00
2022-12-13T23:18:23.040Z,100521.22
2022-12-13T23:20:49.363Z,100521.31
2022-12-13T23:23:15.668Z,100523.47
2022-12-13T23:25:41.984Z,100522.00
2022-12-13T23:28:08.354Z,100521.31
2022-12-13T23:30:35.939Z,100519.84
2022-12-13T23:33:02.297Z,100512.59
2022-12-13T23:35:29.341Z,100507.53
2022-12-13T23:37:55.811Z,100506.78
2022-12-13T23:40:22.136Z,100493.78
2022-12-13T23:42:49.317Z,100505.28
2022-12-13T23:45:15.639Z,100504.66
2022-12-13T23:47:41.961Z,100498.22
2022-12-13T23:50:08.461Z,100497.47
2022-12-13T23:52:34.781Z,100493.94
2022-12-13T23:55:01.128Z,100504.72
2022-12-13T23:57:27.437Z,100501.09
2022-12-13T23:59:53.872Z,100497.47
